sensor_id;sensor_type;location;lat;lon;timestamp;pressure;altitude;pressure_sealevel;temperature;humidity
48053;BME280;33824;51.600;5.718;2023-02-24T00:02:22;101444.81;;;3.65;99.00
48053;BME280;33824;51.600;5.718;2023-02-24T00:04:48;101449.28;;;3.65;98.75
48053;BME280;33824;51.600;5.718;2023-02-24T00:07:17;101450.09;;;3.65;99.04
48053;BME280;33824;51.600;5.718;2023-02-24T00:09:43;101441.34;;;3.65;99.02
48053;BME280;33824;51.600;5.718;2023-02-24T00:12:15;101445.78;;;3.64;99.49
48053;BME280;33824;51.600;5.718;2023-02-24T00:14:43;101440.50;;;3.64;99.70
48053;BME280;33824;51.600;5.718;2023-02-24T00:17:10;101439.53;;;3.65;99.89
48053;BME280;33824;51.600;5.718;2023-02-24T00:19:38;101430.56;;;3.68;100.00
48053;BME280;33824;51.600;5.718;2023-02-24T00:22:06;101432.25;;;3.69;100.00
48053;BME280;33824;51.600;5.718;2023-02-24T00:24:33;101438.97;;;3.73;99.36
48053;BME280;33824;51.600;5.718;2023-02-24T00:27:01;101431.19;;;3.71;99.48
48053;BME280;33824;51.600;5.718;2023-02-24T00:29:32;101430.00;;;3.75;99.64
48053;BME280;33824;51.600;5.718;2023-02-24T00:31:58;101427.34;;;3.75;99.21
48053;BME280;33824;51.600;5.718;2023-02-24T00:34:29;101420.38;;;3.74;98.80
48053;BME280;33824;51.600;5.718;2023-02-24T00:36:54;101421.00;;;3.78;98.80
48053;BME280;33824;51.600;5.718;2023-02-24T00:39:20;101423.41;;;3.81;98.75
48053;BME280;33824;51.600;5.718;2023-02-24T00:41:54;101420.56;;;3.84;98.90
48053;BME280;33824;51.600;5.718;2023-02-24T00:44:40;101416.47;;;3.80;99.48
48053;BME280;33824;51.600;5.718;2023-02-24T00:47:07;101418.03;;;3.94;99.84
48053;BME280;33824;51.600;5.718;2023-02-24T00:49:34;101413.13;;;4.00;99.74
48053;BME280;33824;51.600;5.718;2023-02-24T00:52:16;101409.88;;;4.08;99.08
48053;BME280;33824;51.600;5.718;2023-02-24T00:54:43;101405.94;;;4.13;99.13
48053;BME280;33824;51.600;5.718;2023-02-24T00:57:09;101407.25;;;4.19;98.98
48053;BME280;33824;51.600;5.718;2023-02-24T00:59:36;101404.16;;;4.25;99.09
48053;BME280;33824;51.600;5.718;2023-02-24T01:02:02;101399.13;;;4.33;98.93
48053;BME280;33824;51.600;5.718;2023-02-24T01:04:29;101402.59;;;4.45;99.18
48053;BME280;33824;51.600;5.718;2023-02-24T01:06:55;101395.88;;;4.52;98.79
48053;BME280;33824;51.600;5.718;2023-02-24T01:09:36;101394.53;;;4.57;98.65
48053;BME280;33824;51.600;5.718;2023-02-24T01:12:03;101389.97;;;4.59;98.67
48053;BME280;33824;51.600;5.718;2023-02-24T01:14:48;101382.75;;;4.61;98.57
48053;BME280;33824;51.600;5.718;2023-02-24T01:17:15;101379.06;;;4.64;98.81
48053;BME280;33824;51.600;5.718;2023-02-24T01:19:43;101368.81;;;4.70;98.42
48053;BME280;33824;51.600;5.718;2023-02-24T01:22:13;101370.63;;;4.70;98.20
48053;BME280;33824;51.600;5.718;2023-02-24T01:24:40;101358.97;;;4.72;98.24
48053;BME280;33824;51.600;5.718;2023-02-24T01:27:11;101363.03;;;4.76;98.61
48053;BME280;33824;51.600;5.718;2023-02-24T01:29:38;101362.66;;;4.81;98.27
48053;BME280;33824;51.600;5.718;2023-02-24T01:32:07;101365.31;;;4.81;98.36
48053;BME280;33824;51.600;5.718;2023-02-24T01:34:37;101362.88;;;4.89;98.48
48053;BME280;33824;51.600;5.718;2023-02-24T01:37:03;101357.22;;;4.94;98.33
48053;BME280;33824;51.600;5.718;2023-02-24T01:39:29;101348.78;;;5.00;98.23
48053;BME280;33824;51.600;5.718;2023-02-24T01:41:54;101350.72;;;4.98;98.17
48053;BME280;33824;51.600;5.718;2023-02-24T01:46:52;101345.03;;;5.02;97.84
48053;BME280;33824;51.600;5.718;2023-02-24T01:49:22;101337.84;;;5.04;97.77
48053;BME280;33824;51.600;5.718;2023-02-24T01:51:53;101330.88;;;5.03;97.57
48053;BME280;33824;51.600;5.718;2023-02-24T01:54:24;101327.53;;;5.01;97.48
48053;BME280;33824;51.600;5.718;2023-02-24T01:56:51;101317.41;;;5.06;97.45
48053;BME280;33824;51.600;5.718;2023-02-24T01:59:22;101313.22;;;5.04;97.87
48053;BME280;33824;51.600;5.718;2023-02-24T02:01:49;101311.31;;;5.06;97.74
48053;BME280;33824;51.600;5.718;2023-02-24T02:06:59;101302.97;;;5.10;97.62
48053;BME280;33824;51.600;5.718;2023-02-24T02:09:26;101295.88;;;5.11;97.65
48053;BME280;33824;51.600;5.718;2023-02-24T02:11:52;101290.59;;;5.11;97.08
48053;BME280;33824;51.600;5.718;2023-02-24T02:14:20;101287.00;;;5.12;97.26
48053;BME280;33824;51.600;5.718;2023-02-24T02:17:08;101278.75;;;5.05;97.45
48053;BME280;33824;51.600;5.718;2023-02-24T02:34:14;101246.03;;;5.06;96.47
48053;BME280;33824;51.600;5.718;2023-02-24T02:39:50;101244.38;;;5.05;96.36
48053;BME280;33824;51.600;5.718;2023-02-24T02:42:42;101240.06;;;5.04;95.97
48053;BME280;33824;51.600;5.718;2023-02-24T02:45:18;101236.63;;;4.93;95.41
48053;BME280;33824;51.600;5.718;2023-02-24T02:48:05;101236.69;;;4.81;95.84
48053;BME280;33824;51.600;5.718;2023-02-24T02:53:24;101230.66;;;4.59;95.02
48053;BME280;33824;51.600;5.718;2023-02-24T02:55:59;101228.41;;;4.54;94.72
48053;BME280;33824;51.600;5.718;2023-02-24T02:58:29;101224.69;;;4.46;94.46
48053;BME280;33824;51.600;5.718;2023-02-24T03:00:59;101223.72;;;4.15;94.24
48053;BME280;33824;51.600;5.718;2023-02-24T03:03:39;101215.09;;;4.13;94.29
48053;BME280;33824;51.600;5.718;2023-02-24T03:06:18;101211.28;;;4.06;94.51
48053;BME280;33824;51.600;5.718;2023-02-24T03:08:55;101221.97;;;3.93;94.60
48053;BME280;33824;51.600;5.718;2023-02-24T03:11:22;101223.06;;;3.91;94.45
48053;BME280;33824;51.600;5.718;2023-02-24T03:13:50;101212.97;;;3.84;94.62
48053;BME280;33824;51.600;5.718;2023-02-24T03:16:19;101207.94;;;3.81;94.81
48053;BME280;33824;51.600;5.718;2023-02-24T03:19:03;101208.19;;;3.67;94.80
48053;BME280;33824;51.600;5.718;2023-02-24T03:21:35;101209.75;;;3.70;94.89
48053;BME280;33824;51.600;5.718;2023-02-24T03:24:03;101202.81;;;3.69;94.74
48053;BME280;33824;51.600;5.718;2023-02-24T03:36:55;101199.34;;;3.46;94.97
48053;BME280;33824;51.600;5.718;2023-02-24T03:39:23;101197.53;;;3.47;95.07
48053;BME280;33824;51.600;5.718;2023-02-24T03:44:34;101179.91;;;3.36;94.67
48053;BME280;33824;51.600;5.718;2023-02-24T03:47:00;101180.41;;;3.30;94.35
48053;BME280;33824;51.600;5.718;2023-02-24T03:49:26;101176.44;;;3.24;94.38
48053;BME280;33824;51.600;5.718;2023-02-24T03:52:04;101172.84;;;3.14;94.30
48053;BME280;33824;51.600;5.718;2023-02-24T04:00:27;101173.78;;;3.02;94.63
48053;BME280;33824;51.600;5.718;2023-02-24T04:03:20;101172.25;;;3.00;94.94
48053;BME280;33824;51.600;5.718;2023-02-24T04:08:38;101171.03;;;3.04;94.38
48053;BME280;33824;51.600;5.718;2023-02-24T04:11:16;101166.22;;;2.98;94.16
48053;BME280;33824;51.600;5.718;2023-02-24T04:13:49;101164.69;;;2.95;94.31
48053;BME280;33824;51.600;5.718;2023-02-24T04:16:21;101158.66;;;2.93;94.04
48053;BME280;33824;51.600;5.718;2023-02-24T04:18:56;101156.03;;;2.93;93.91
48053;BME280;33824;51.600;5.718;2023-02-24T04:21:26;101151.63;;;2.94;94.24
48053;BME280;33824;51.600;5.718;2023-02-24T04:23:52;101160.50;;;2.93;94.47
48053;BME280;33824;51.600;5.718;2023-02-24T04:26:19;101157.63;;;2.96;94.55
48053;BME280;33824;51.600;5.718;2023-02-24T04:28:46;101157.63;;;2.96;94.73
48053;BME280;33824;51.600;5.718;2023-02-24T04:31:16;101156.53;;;2.98;94.67
48053;BME280;33824;51.600;5.718;2023-02-24T04:33:44;101151.88;;;3.02;94.73
48053;BME280;33824;51.600;5.718;2023-02-24T04:36:19;101140.63;;;3.00;94.37
48053;BME280;33824;51.600;5.718;2023-02-24T04:38:46;101140.03;;;3.07;94.38
48053;BME280;33824;51.600;5.718;2023-02-24T04:41:13;101138.00;;;3.11;94.22
48053;BME280;33824;51.600;5.718;2023-02-24T04:43:46;101145.41;;;3.17;94.29
48053;BME280;33824;51.600;5.718;2023-02-24T04:46:12;101135.59;;;3.19;94.34
48053;BME280;33824;51.600;5.718;2023-02-24T04:48:37;101137.16;;;3.21;94.06
48053;BME280;33824;51.600;5.718;2023-02-24T04:51:03;101135.25;;;3.23;93.65
48053;BME280;33824;51.600;5.718;2023-02-24T04:53:31;101126.13;;;3.27;93.64
48053;BME280;33824;51.600;5.718;2023-02-24T04:56:01;101133.91;;;3.29;93.45
48053;BME280;33824;51.600;5.718;2023-02-24T04:58:32;101123.28;;;3.30;93.18
48053;BME280;33824;51.600;5.718;2023-02-24T05:00:58;101124.81;;;3.33;93.50
48053;BME280;33824;51.600;5.718;2023-02-24T05:03:25;101124.31;;;3.39;93.63
48053;BME280;33824;51.600;5.718;2023-02-24T05:05:58;101121.34;;;3.32;93.26
48053;BME280;33824;51.600;5.718;2023-02-24T05:08:28;101109.50;;;3.38;93.15
48053;BME280;33824;51.600;5.718;2023-02-24T05:10:55;101110.94;;;3.42;93.29
48053;BME280;33824;51.600;5.718;2023-02-24T05:13:28;101109.25;;;3.30;93.22
48053;BME280;33824;51.600;5.718;2023-02-24T05:15:58;101105.88;;;3.39;93.84
48053;BME280;33824;51.600;5.718;2023-02-24T05:18:24;101103.59;;;3.46;93.36
48053;BME280;33824;51.600;5.718;2023-02-24T05:20:52;101094.00;;;3.45;93.51
48053;BME280;33824;51.600;5.718;2023-02-24T05:23:43;101095.44;;;3.49;93.72
48053;BME280;33824;51.600;5.718;2023-02-24T05:26:11;101082.25;;;3.60;93.62
48053;BME280;33824;51.600;5.718;2023-02-24T05:28:38;101085.56;;;3.62;93.10
48053;BME280;33824;51.600;5.718;2023-02-24T05:31:10;101078.16;;;3.67;93.69
48053;BME280;33824;51.600;5.718;2023-02-24T05:33:36;101078.16;;;3.67;93.18
48053;BME280;33824;51.600;5.718;2023-02-24T05:36:07;101072.41;;;3.62;92.92
48053;BME280;33824;51.600;5.718;2023-02-24T05:38:34;101070.97;;;3.58;93.12
48053;BME280;33824;51.600;5.718;2023-02-24T05:41:20;101060.84;;;3.42;92.66
48053;BME280;33824;51.600;5.718;2023-02-24T05:43:53;101062.97;;;3.48;93.04
48053;BME280;33824;51.600;5.718;2023-02-24T05:46:24;101056.38;;;3.54;92.87
48053;BME280;33824;51.600;5.718;2023-02-24T05:48:56;101047.03;;;3.50;93.22
48053;BME280;33824;51.600;5.718;2023-02-24T05:51:23;101051.47;;;3.49;93.34
48053;BME280;33824;51.600;5.718;2023-02-24T05:53:50;101044.25;;;3.51;93.39
48053;BME280;33824;51.600;5.718;2023-02-24T05:56:23;101039.72;;;3.53;93.33
48053;BME280;33824;51.600;5.718;2023-02-24T05:58:50;101037.78;;;3.55;93.25
48053;BME280;33824;51.600;5.718;2023-02-24T06:01:31;101031.94;;;3.52;93.04
48053;BME280;33824;51.600;5.718;2023-02-24T06:04:01;101033.97;;;3.48;93.26
48053;BME280;33824;51.600;5.718;2023-02-24T06:06:38;101027.59;;;3.51;93.39
48053;BME280;33824;51.600;5.718;2023-02-24T06:09:06;101027.25;;;3.55;93.20
48053;BME280;33824;51.600;5.718;2023-02-24T06:11:34;101025.44;;;3.56;93.19
48053;BME280;33824;51.600;5.718;2023-02-24T06:14:00;101017.28;;;3.59;93.40
48053;BME280;33824;51.600;5.718;2023-02-24T06:16:26;101012.59;;;3.62;93.13
48053;BME280;33824;51.600;5.718;2023-02-24T06:18:51;101014.28;;;3.63;93.18
48053;BME280;33824;51.600;5.718;2023-02-24T06:21:17;101016.78;;;3.65;92.77
48053;BME280;33824;51.600;5.718;2023-02-24T06:23:44;101012.47;;;3.64;93.23
48053;BME280;33824;51.600;5.718;2023-02-24T06:26:10;101000.97;;;3.65;93.22
48053;BME280;33824;51.600;5.718;2023-02-24T06:28:38;100994.88;;;3.64;92.92
48053;BME280;33824;51.600;5.718;2023-02-24T06:31:05;100990.03;;;3.69;93.05
48053;BME280;33824;51.600;5.718;2023-02-24T06:33:32;100985.63;;;3.59;92.80
48053;BME280;33824;51.600;5.718;2023-02-24T06:36:03;100983.00;;;3.59;92.93
48053;BME280;33824;51.600;5.718;2023-02-24T06:38:34;100981.72;;;3.53;92.51
48053;BME280;33824;51.600;5.718;2023-02-24T06:41:00;100968.97;;;3.58;92.73
48053;BME280;33824;51.600;5.718;2023-02-24T06:43:39;100970.19;;;3.54;92.43
48053;BME280;33824;51.600;5.718;2023-02-24T06:46:10;100963.72;;;3.58;92.22
48053;BME280;33824;51.600;5.718;2023-02-24T06:48:36;100969.19;;;3.66;92.49
48053;BME280;33824;51.600;5.718;2023-02-24T06:51:10;100974.59;;;3.65;91.71
48053;BME280;33824;51.600;5.718;2023-02-24T06:53:38;100975.19;;;3.68;91.74
48053;BME280;33824;51.600;5.718;2023-02-24T06:56:09;100964.50;;;3.70;91.66
48053;BME280;33824;51.600;5.718;2023-02-24T06:58:52;100960.44;;;3.66;91.38
48053;BME280;33824;51.600;5.718;2023-02-24T07:01:25;100953.94;;;3.70;91.60
48053;BME280;33824;51.600;5.718;2023-02-24T07:03:55;100955.25;;;3.75;91.38
48053;BME280;33824;51.600;5.718;2023-02-24T07:06:35;100956.22;;;3.74;90.61
48053;BME280;33824;51.600;5.718;2023-02-24T07:09:04;100949.59;;;3.80;91.13
48053;BME280;33824;51.600;5.718;2023-02-24T07:11:32;100949.03;;;3.76;91.26
48053;BME280;33824;51.600;5.718;2023-02-24T07:13:59;100950.41;;;3.80;90.83
48053;BME280;33824;51.600;5.718;2023-02-24T07:16:25;100946.44;;;3.86;90.61
48053;BME280;33824;51.600;5.718;2023-02-24T07:18:58;100944.06;;;3.83;90.81
48053;BME280;33824;51.600;5.718;2023-02-24T07:21:25;100934.78;;;3.88;91.22
48053;BME280;33824;51.600;5.718;2023-02-24T07:23:52;100925.91;;;3.90;90.60
48053;BME280;33824;51.600;5.718;2023-02-24T07:26:25;100925.66;;;3.93;90.47
48053;BME280;33824;51.600;5.718;2023-02-24T07:28:52;100924.03;;;4.01;90.71
48053;BME280;33824;51.600;5.718;2023-02-24T07:31:21;100932.22;;;3.98;90.37
48053;BME280;33824;51.600;5.718;2023-02-24T07:33:51;100924.16;;;4.00;90.22
48053;BME280;33824;51.600;5.718;2023-02-24T07:36:18;100934.91;;;4.08;89.81
48053;BME280;33824;51.600;5.718;2023-02-24T07:38:50;100933.09;;;4.08;90.04
48053;BME280;33824;51.600;5.718;2023-02-24T07:41:21;100922.69;;;4.07;89.96
48053;BME280;33824;51.600;5.718;2023-02-24T07:43:48;100923.28;;;4.10;90.30
48053;BME280;33824;51.600;5.718;2023-02-24T07:46:23;100917.72;;;4.13;89.77
48053;BME280;33824;51.600;5.718;2023-02-24T07:48:53;100919.97;;;4.18;89.70
48053;BME280;33824;51.600;5.718;2023-02-24T07:51:22;100908.03;;;4.23;89.77
48053;BME280;33824;51.600;5.718;2023-02-24T07:53:53;100904.56;;;4.23;88.79
48053;BME280;33824;51.600;5.718;2023-02-24T07:56:22;100898.06;;;4.27;89.26
48053;BME280;33824;51.600;5.718;2023-02-24T07:59:00;100893.31;;;4.21;88.13
48053;BME280;33824;51.600;5.718;2023-02-24T08:01:29;100888.78;;;4.32;87.20
48053;BME280;33824;51.600;5.718;2023-02-24T08:03:58;100892.84;;;4.37;86.87
48053;BME280;33824;51.600;5.718;2023-02-24T08:06:33;100888.13;;;4.40;85.56
48053;BME280;33824;51.600;5.718;2023-02-24T08:09:12;100889.53;;;4.44;85.92
48053;BME280;33824;51.600;5.718;2023-02-24T08:11:43;100885.25;;;4.53;85.41
48053;BME280;33824;51.600;5.718;2023-02-24T08:14:13;100877.63;;;4.59;85.63
48053;BME280;33824;51.600;5.718;2023-02-24T08:16:43;100866.66;;;4.64;85.44
48053;BME280;33824;51.600;5.718;2023-02-24T08:19:18;100864.88;;;4.74;85.15
48053;BME280;33824;51.600;5.718;2023-02-24T08:21:51;100859.03;;;4.70;83.69
48053;BME280;33824;51.600;5.718;2023-02-24T08:24:21;100866.41;;;4.76;84.30
48053;BME280;33824;51.600;5.718;2023-02-24T08:26:50;100868.19;;;4.76;83.30
48053;BME280;33824;51.600;5.718;2023-02-24T08:29:35;100851.66;;;4.83;83.68
48053;BME280;33824;51.600;5.718;2023-02-24T08:32:08;100846.38;;;4.83;83.07
48053;BME280;33824;51.600;5.718;2023-02-24T08:34:37;100859.06;;;4.99;82.78
48053;BME280;33824;51.600;5.718;2023-02-24T08:37:04;100856.16;;;5.12;82.90
48053;BME280;33824;51.600;5.718;2023-02-24T08:39:30;100849.19;;;5.11;81.85
48053;BME280;33824;51.600;5.718;2023-02-24T08:42:01;100845.31;;;5.15;81.36
48053;BME280;33824;51.600;5.718;2023-02-24T08:44:26;100828.63;;;5.24;82.67
48053;BME280;33824;51.600;5.718;2023-02-24T08:46:53;100833.03;;;5.33;81.58
48053;BME280;33824;51.600;5.718;2023-02-24T08:49:20;100841.97;;;5.32;81.39
48053;BME280;33824;51.600;5.718;2023-02-24T08:51:51;100837.78;;;5.29;80.50
48053;BME280;33824;51.600;5.718;2023-02-24T08:54:20;100825.41;;;5.30;80.98
48053;BME280;33824;51.600;5.718;2023-02-24T08:56:54;100823.72;;;5.39;81.03
48053;BME280;33824;51.600;5.718;2023-02-24T08:59:34;100827.91;;;5.31;81.91
48053;BME280;33824;51.600;5.718;2023-02-24T09:02:16;100807.47;;;5.14;81.52
48053;BME280;33824;51.600;5.718;2023-02-24T09:04:49;100801.91;;;5.27;81.99
48053;BME280;33824;51.600;5.718;2023-02-24T09:07:18;100806.59;;;5.33;83.56
48053;BME280;33824;51.600;5.718;2023-02-24T09:09:45;100805.94;;;5.31;83.80
48053;BME280;33824;51.600;5.718;2023-02-24T09:12:12;100799.94;;;5.19;84.94
48053;BME280;33824;51.600;5.718;2023-02-24T09:14:51;100788.69;;;5.17;85.65
48053;BME280;33824;51.600;5.718;2023-02-24T09:17:21;100792.72;;;5.12;85.57
48053;BME280;33824;51.600;5.718;2023-02-24T09:20:22;100788.00;;;4.96;85.02
48053;BME280;33824;51.600;5.718;2023-02-24T09:22:48;100773.81;;;5.16;85.99
48053;BME280;33824;51.600;5.718;2023-02-24T09:25:29;100769.06;;;5.20;85.22
48053;BME280;33824;51.600;5.718;2023-02-24T09:28:07;100760.16;;;5.30;85.47
48053;BME280;33824;51.600;5.718;2023-02-24T09:30:36;100752.75;;;5.34;85.44
48053;BME280;33824;51.600;5.718;2023-02-24T09:33:14;100760.44;;;5.27;85.08
48053;BME280;33824;51.600;5.718;2023-02-24T09:36:13;100766.97;;;5.23;84.79
48053;BME280;33824;51.600;5.718;2023-02-24T09:38:49;100755.66;;;5.41;85.11
48053;BME280;33824;51.600;5.718;2023-02-24T09:41:48;100745.84;;;5.23;84.60
48053;BME280;33824;51.600;5.718;2023-02-24T09:44:48;100747.63;;;5.32;84.76
48053;BME280;33824;51.600;5.718;2023-02-24T09:47:32;100745.91;;;5.41;85.42
48053;BME280;33824;51.600;5.718;2023-02-24T09:52:44;100754.41;;;5.45;85.60
48053;BME280;33824;51.600;5.718;2023-02-24T09:55:34;100743.16;;;5.33;84.89
48053;BME280;33824;51.600;5.718;2023-02-24T09:58:26;100735.50;;;5.30;85.67
48053;BME280;33824;51.600;5.718;2023-02-24T10:06:37;100707.34;;;5.48;84.43
48053;BME280;33824;51.600;5.718;2023-02-24T10:09:09;100713.44;;;5.58;85.14
48053;BME280;33824;51.600;5.718;2023-02-24T10:11:44;100708.53;;;5.63;83.81
48053;BME280;33824;51.600;5.718;2023-02-24T10:14:42;100707.06;;;5.51;85.05
48053;BME280;33824;51.600;5.718;2023-02-24T10:17:19;100705.09;;;5.63;85.34
48053;BME280;33824;51.600;5.718;2023-02-24T10:19:48;100705.44;;;5.77;85.28
48053;BME280;33824;51.600;5.718;2023-02-24T10:22:33;100692.41;;;5.66;84.97
48053;BME280;33824;51.600;5.718;2023-02-24T10:28:00;100694.03;;;5.67;85.52
48053;BME280;33824;51.600;5.718;2023-02-24T10:30:44;100687.13;;;5.57;85.37
48053;BME280;33824;51.600;5.718;2023-02-24T10:33:21;100677.63;;;5.64;86.22
48053;BME280;33824;51.600;5.718;2023-02-24T10:35:51;100693.06;;;5.68;86.83
48053;BME280;33824;51.600;5.718;2023-02-24T10:38:27;100681.63;;;5.77;86.86
48053;BME280;33824;51.600;5.718;2023-02-24T10:40:53;100682.59;;;5.76;85.96
48053;BME280;33824;51.600;5.718;2023-02-24T10:43:24;100688.28;;;5.82;86.07
48053;BME280;33824;51.600;5.718;2023-02-24T10:45:57;100683.94;;;5.90;86.26
48053;BME280;33824;51.600;5.718;2023-02-24T10:48:32;100667.94;;;5.92;85.58
48053;BME280;33824;51.600;5.718;2023-02-24T10:51:12;100677.38;;;5.94;85.16
48053;BME280;33824;51.600;5.718;2023-02-24T10:53:48;100672.53;;;5.90;84.38
48053;BME280;33824;51.600;5.718;2023-02-24T10:56:38;100664.75;;;6.06;85.64
48053;BME280;33824;51.600;5.718;2023-02-24T10:59:11;100653.41;;;5.96;84.60
48053;BME280;33824;51.600;5.718;2023-02-24T11:01:59;100660.38;;;5.97;84.47
48053;BME280;33824;51.600;5.718;2023-02-24T11:04:33;100659.09;;;6.01;85.32
48053;BME280;33824;51.600;5.718;2023-02-24T11:07:20;100656.59;;;6.17;86.20
48053;BME280;33824;51.600;5.718;2023-02-24T11:10:11;100656.38;;;5.93;86.00
48053;BME280;33824;51.600;5.718;2023-02-24T11:12:47;100653.31;;;5.88;85.78
48053;BME280;33824;51.600;5.718;2023-02-24T11:18:21;100632.16;;;6.05;87.17
48053;BME280;33824;51.600;5.718;2023-02-24T11:21:03;100635.03;;;5.94;86.87
48053;BME280;33824;51.600;5.718;2023-02-24T11:23:36;100632.47;;;6.02;87.09
48053;BME280;33824;51.600;5.718;2023-02-24T11:26:11;100627.19;;;6.02;87.34
48053;BME280;33824;51.600;5.718;2023-02-24T11:31:54;100612.03;;;5.95;88.53
48053;BME280;33824;51.600;5.718;2023-02-24T11:37:24;100606.41;;;5.80;90.83
48053;BME280;33824;51.600;5.718;2023-02-24T11:40:02;100604.72;;;5.89;91.47
48053;BME280;33824;51.600;5.718;2023-02-24T11:45:11;100598.03;;;5.85;93.36
48053;BME280;33824;51.600;5.718;2023-02-24T11:47:50;100581.63;;;5.81;93.44
48053;BME280;33824;51.600;5.718;2023-02-24T11:50:43;100588.31;;;5.75;94.05
48053;BME280;33824;51.600;5.718;2023-02-24T11:54:18;100587.97;;;5.70;95.84
48053;BME280;33824;51.600;5.718;2023-02-24T11:56:25;100576.31;;;5.81;95.74
48053;BME280;33824;51.600;5.718;2023-02-24T12:02:04;100572.28;;;5.59;97.57
48053;BME280;33824;51.600;5.718;2023-02-24T12:04:41;100576.97;;;5.65;98.70
48053;BME280;33824;51.600;5.718;2023-02-24T12:07:49;100573.56;;;5.55;99.63
48053;BME280;33824;51.600;5.718;2023-02-24T12:12:40;100565.25;;;5.50;100.00
48053;BME280;33824;51.600;5.718;2023-02-24T12:15:23;100552.31;;;5.47;100.00
48053;BME280;33824;51.600;5.718;2023-02-24T12:17:58;100547.13;;;5.55;100.00
48053;BME280;33824;51.600;5.718;2023-02-24T12:20:33;100545.03;;;5.59;100.00
48053;BME280;33824;51.600;5.718;2023-02-24T12:23:16;100530.44;;;5.55;100.00
48053;BME280;33824;51.600;5.718;2023-02-24T12:26:21;100534.88;;;5.54;100.00
48053;BME280;33824;51.600;5.718;2023-02-24T12:32:13;100530.03;;;5.50;100.00
48053;BME280;33824;51.600;5.718;2023-02-24T12:37:34;100512.66;;;5.65;100.00
48053;BME280;33824;51.600;5.718;2023-02-24T12:40:14;100509.50;;;5.61;100.00
48053;BME280;33824;51.600;5.718;2023-02-24T12:43:03;100493.09;;;5.58;100.00
48053;BME280;33824;51.600;5.718;2023-02-24T12:48:42;100503.28;;;5.53;100.00
48053;BME280;33824;51.600;5.718;2023-02-24T12:51:20;100501.78;;;5.68;100.00
48053;BME280;33824;51.600;5.718;2023-02-24T12:56:42;100492.34;;;5.65;100.00
48053;BME280;33824;51.600;5.718;2023-02-24T12:59:14;100476.38;;;5.57;100.00
48053;BME280;33824;51.600;5.718;2023-02-24T13:06:59;100481.00;;;5.55;100.00
48053;BME280;33824;51.600;5.718;2023-02-24T13:09:50;100479.69;;;5.59;100.00
48053;BME280;33824;51.600;5.718;2023-02-24T13:15:21;100453.34;;;5.67;100.00
48053;BME280;33824;51.600;5.718;2023-02-24T13:17:49;100462.03;;;5.77;100.00
48053;BME280;33824;51.600;5.718;2023-02-24T13:20:44;100470.72;;;5.70;100.00
48053;BME280;33824;51.600;5.718;2023-02-24T13:23:20;100469.53;;;5.82;100.00
48053;BME280;33824;51.600;5.718;2023-02-24T13:25:53;100472.75;;;5.94;100.00
48053;BME280;33824;51.600;5.718;2023-02-24T13:28:30;100463.19;;;5.93;100.00
48053;BME280;33824;51.600;5.718;2023-02-24T13:30:59;100457.50;;;5.88;100.00
48053;BME280;33824;51.600;5.718;2023-02-24T13:33:41;100444.22;;;5.97;100.00
48053;BME280;33824;51.600;5.718;2023-02-24T13:36:20;100446.34;;;6.19;100.00
48053;BME280;33824;51.600;5.718;2023-02-24T13:38:49;100418.50;;;6.41;100.00
48053;BME280;33824;51.600;5.718;2023-02-24T13:41:35;100431.88;;;6.40;100.00
48053;BME280;33824;51.600;5.718;2023-02-24T13:44:18;100426.03;;;6.54;100.00
48053;BME280;33824;51.600;5.718;2023-02-24T13:49:42;100425.81;;;6.47;100.00
48053;BME280;33824;51.600;5.718;2023-02-24T13:55:23;100416.41;;;6.53;100.00
48053;BME280;33824;51.600;5.718;2023-02-24T14:03:32;100408.78;;;6.92;100.00
48053;BME280;33824;51.600;5.718;2023-02-24T14:06:00;100404.84;;;6.96;100.00
48053;BME280;33824;51.600;5.718;2023-02-24T14:08:44;100392.41;;;7.04;100.00
48053;BME280;33824;51.600;5.718;2023-02-24T14:11:14;100396.28;;;7.42;100.00
48053;BME280;33824;51.600;5.718;2023-02-24T14:13:44;100393.31;;;7.45;100.00
48053;BME280;33824;51.600;5.718;2023-02-24T14:16:18;100379.41;;;7.67;100.00
48053;BME280;33824;51.600;5.718;2023-02-24T14:18:52;100387.84;;;7.87;100.00
48053;BME280;33824;51.600;5.718;2023-02-24T14:21:24;100387.84;;;7.87;100.00
48053;BME280;33824;51.600;5.718;2023-02-24T14:24:01;100379.88;;;7.79;100.00
48053;BME280;33824;51.600;5.718;2023-02-24T14:26:43;100373.06;;;7.68;100.00
48053;BME280;33824;51.600;5.718;2023-02-24T14:29:09;100368.44;;;7.70;100.00
48053;BME280;33824;51.600;5.718;2023-02-24T14:31:36;100362.28;;;7.86;100.00
48053;BME280;33824;51.600;5.718;2023-02-24T14:34:03;100377.88;;;7.81;100.00
48053;BME280;33824;51.600;5.718;2023-02-24T14:36:36;100378.38;;;7.93;100.00
48053;BME280;33824;51.600;5.718;2023-02-24T14:41:32;100372.00;;;8.34;100.00
48053;BME280;33824;51.600;5.718;2023-02-24T14:44:06;100364.97;;;8.49;100.00
48053;BME280;33824;51.600;5.718;2023-02-24T14:46:32;100365.88;;;8.73;100.00
48053;BME280;33824;51.600;5.718;2023-02-24T14:48:59;100363.41;;;8.71;100.00
48053;BME280;33824;51.600;5.718;2023-02-24T14:51:29;100359.31;;;8.52;100.00
48053;BME280;33824;51.600;5.718;2023-02-24T14:54:01;100363.16;;;8.42;100.00
48053;BME280;33824;51.600;5.718;2023-02-24T14:56:30;100366.66;;;8.26;100.00
48053;BME280;33824;51.600;5.718;2023-02-24T14:59:02;100355.09;;;8.11;100.00
48053;BME280;33824;51.600;5.718;2023-02-24T15:01:33;100352.94;;;8.14;100.00
48053;BME280;33824;51.600;5.718;2023-02-24T15:04:55;100344.50;;;8.03;100.00
48053;BME280;33824;51.600;5.718;2023-02-24T15:06:56;100346.84;;;8.06;100.00
48053;BME280;33824;51.600;5.718;2023-02-24T15:09:24;100354.63;;;7.99;100.00
48053;BME280;33824;51.600;5.718;2023-02-24T15:11:52;100350.13;;;8.08;100.00
48053;BME280;33824;51.600;5.718;2023-02-24T15:14:23;100352.56;;;8.26;100.00
48053;BME280;33824;51.600;5.718;2023-02-24T15:16:56;100348.44;;;8.31;100.00
48053;BME280;33824;51.600;5.718;2023-02-24T15:21:52;100335.16;;;8.31;100.00